Aeroporto :







RITROVATECI SU...

 
LOGIN :

Iscrizione | Disclaimer

   EN    FR    IT 

 









Sommario :    VFR   VFR Marginale   IFR   IFR Intensivo   IFR Molto Intensivo
Visibilità : 
Base nubi : 
>= 8 km
>= 3000ft
5 / 8 km
1000 / 3000 ft
1500m / 5 km
500 / 1000 ft
800 / 1500m
200 / 500 ft
< 800m
< 200 ft
Simboli :   Temporali  Nebbia  Neve Forte  Precipitazioni Forti  Vento > 20 kt






- Altitudine del aeroporto : 100 ft
- Codice IATA : PSM


KPSM - Portsmouth International at Pease

ULTIMO METAR :
  • 171656Z 03008KT 10SM OVC026 01/M07 A3040 RMK AO2A SLP298 T00101066

METARs OBSOLETI :
  • 171556Z 04006KT 10SM BKN027 BKN250 00/M07 A3044 RMK AO2A SLP312 T00011072
  • 171511Z 01006KT 10SM BKN027 BKN250 M01/M08 A3047 RMK AO2A SLP322
  • 171456Z 03006KT 10SM SCT027 SCT200 BKN250 M01/M09 A3047 RMK AO2A SLP322 T10061090 55003

TAF KPSM
Valido dal 17 a 18 ore il 18 a 18 ore UTC


171722Z 1718/1818 04008KT P6SM OVC025
FM181100 03012KT 5SM -FZRA OVC015
FM181600 01011KT 5SM -RA BR OVC015



MetMap, La meteo Aeronautica in un colpo d'occhio ! - Copyright ORBIFLY Dicembre 2007 - Disclaimer

ORBIFLY MET'MAP TEAM :

Programmazione e sviluppo : Alexandra Zaïnal
Concezione e sviluppo : Baudouin d'Aumeries
Co-Programmazione e sviluppo : Marc-Olivier Méhu
Supporto tecnico e logistico : Manuel Goepfert
Aiuto per la traduzione : Arnaldo La Scala

Contatto : metmap@orbifly.com




FONTI E CREDITI :

   NOAA